createdAt,value
2023-04-08T00:02:07.177Z,83.03
2023-04-08T00:04:34.306Z,83.54
2023-04-08T00:07:01.347Z,83.22
2023-04-08T00:09:28.568Z,83.34
2023-04-08T00:11:57.268Z,83.74
2023-04-08T00:14:24.325Z,83.95
2023-04-08T00:16:51.518Z,84.36
2023-04-08T00:19:18.746Z,83.82
2023-04-08T00:21:45.742Z,83.38
2023-04-08T00:24:13.242Z,83.38
2023-04-08T00:26:40.663Z,83.62
2023-04-08T00:29:07.641Z,84.36
2023-04-08T00:31:34.614Z,83.87
2023-04-08T00:34:01.913Z,84.02
2023-04-08T00:36:28.742Z,83.56
2023-04-08T00:38:56.751Z,83.36
2023-04-08T00:41:23.947Z,84.63
2023-04-08T00:43:52.092Z,85.80
2023-04-08T00:46:19.363Z,85.81
2023-04-08T00:48:46.561Z,84.58
2023-04-08T00:51:13.995Z,83.44
2023-04-08T00:53:40.975Z,83.58
2023-04-08T00:56:07.918Z,83.57
2023-04-08T00:58:35.035Z,83.33
2023-04-08T01:01:15.166Z,83.56
2023-04-08T01:04:05.377Z,83.80
2023-04-08T01:06:47.097Z,83.39
2023-04-08T01:09:14.128Z,83.52
2023-04-08T01:11:44.647Z,83.77
2023-04-08T01:14:16.519Z,83.71
2023-04-08T01:16:46.239Z,83.55
2023-04-08T01:19:23.005Z,84.37
2023-04-08T01:21:51.004Z,84.65
2023-04-08T01:24:28.345Z,84.10
2023-04-08T01:26:58.414Z,84.69
2023-04-08T01:29:26.556Z,85.11
2023-04-08T01:31:55.541Z,85.74
2023-04-08T01:34:23.621Z,86.45
2023-04-08T01:36:51.951Z,86.50
2023-04-08T01:39:21.587Z,86.29
2023-04-08T01:41:49.712Z,86.49
2023-04-08T01:44:18.871Z,85.51
2023-04-08T01:46:47.458Z,85.20
2023-04-08T01:49:15.963Z,85.07
2023-04-08T01:51:44.854Z,85.91
2023-04-08T01:54:11.877Z,86.63
2023-04-08T01:56:42.508Z,86.51
2023-04-08T01:59:13.747Z,85.79
2023-04-08T02:01:43.948Z,86.64
2023-04-08T02:04:11.209Z,87.08
2023-04-08T02:06:38.922Z,86.23
2023-04-08T02:09:05.974Z,86.23
2023-04-08T02:11:33.107Z,86.16
2023-04-08T02:14:00.472Z,85.81
2023-04-08T02:16:43.206Z,85.94
2023-04-08T02:19:21.930Z,86.33
2023-04-08T02:21:57.730Z,87.80
2023-04-08T02:24:27.966Z,88.27
2023-04-08T02:26:57.181Z,89.46
2023-04-08T02:29:25.528Z,90.12
2023-04-08T02:31:55.422Z,90.02
2023-04-08T02:34:23.527Z,90.31
2023-04-08T02:36:51.345Z,90.47
2023-04-08T02:39:18.541Z,90.45
2023-04-08T02:41:48.457Z,90.99
2023-04-08T02:44:15.568Z,92.02
2023-04-08T02:46:42.682Z,92.25
2023-04-08T02:49:09.694Z,92.37
2023-04-08T02:51:36.924Z,91.45
2023-04-08T02:54:04.102Z,90.05
2023-04-08T02:56:31.053Z,89.77
2023-04-08T02:58:58.294Z,89.73
2023-04-08T03:01:25.303Z,90.50
2023-04-08T03:03:52.921Z,91.10
2023-04-08T03:06:20.140Z,91.09
2023-04-08T03:08:47.431Z,92.23
2023-04-08T03:11:14.519Z,92.65
2023-04-08T03:13:41.680Z,92.93
2023-04-08T03:16:08.532Z,92.01
2023-04-08T03:18:35.541Z,91.30
2023-04-08T03:21:03.415Z,91.36
2023-04-08T03:23:30.368Z,91.40
2023-04-08T03:25:57.379Z,91.96
2023-04-08T03:28:24.463Z,91.52
2023-04-08T03:30:51.671Z,91.55
2023-04-08T03:33:18.675Z,91.32
2023-04-08T03:35:45.882Z,92.15
2023-04-08T03:38:12.980Z,92.03
2023-04-08T03:40:39.891Z,92.30
2023-04-08T03:43:08.990Z,91.64
2023-04-08T03:45:35.981Z,91.63
2023-04-08T03:48:02.986Z,91.68
2023-04-08T03:50:30.302Z,91.10
2023-04-08T03:52:57.325Z,90.79
2023-04-08T03:55:24.367Z,90.69
2023-04-08T03:57:51.602Z,90.17
2023-04-08T04:00:18.542Z,90.16
2023-04-08T04:02:46.000Z,90.06
2023-04-08T04:05:12.854Z,89.84
2023-04-08T04:07:39.879Z,90.11
2023-04-08T04:10:07.301Z,89.93
2023-04-08T04:12:34.483Z,90.33
2023-04-08T04:15:01.359Z,90.35
2023-04-08T04:17:28.201Z,90.08
2023-04-08T04:19:55.758Z,90.78
2023-04-08T04:22:22.709Z,91.22
2023-04-08T04:24:50.040Z,90.85
2023-04-08T04:27:18.381Z,90.23
2023-04-08T04:29:45.438Z,89.55
2023-04-08T04:32:12.359Z,88.49
2023-04-08T04:34:39.472Z,88.80
2023-04-08T04:37:06.443Z,90.12
2023-04-08T04:39:33.612Z,89.81
2023-04-08T04:42:00.502Z,89.53
2023-04-08T04:44:27.537Z,89.56
2023-04-08T04:46:54.613Z,88.58
2023-04-08T04:49:21.573Z,88.45
2023-04-08T04:51:49.281Z,87.97
2023-04-08T04:54:16.414Z,87.89
2023-04-08T04:56:43.350Z,87.86
2023-04-08T04:59:10.711Z,88.23
2023-04-08T05:01:37.780Z,88.21
2023-04-08T05:04:04.765Z,88.03
2023-04-08T05:06:31.995Z,88.35
2023-04-08T05:08:58.982Z,87.92
2023-04-08T05:11:28.001Z,87.65
2023-04-08T05:13:54.881Z,87.94
2023-04-08T05:16:21.783Z,88.29
2023-04-08T05:18:49.009Z,88.08
2023-04-08T05:21:16.527Z,87.83
2023-04-08T05:23:43.276Z,88.34
2023-04-08T05:26:10.625Z,88.74
2023-04-08T05:28:37.517Z,88.18
2023-04-08T05:31:04.651Z,87.70
2023-04-08T05:33:31.517Z,87.12
2023-04-08T05:35:58.495Z,87.34
2023-04-08T05:38:25.861Z,86.06
2023-04-08T05:40:52.928Z,85.61
2023-04-08T05:43:19.917Z,86.42
2023-04-08T05:45:46.816Z,86.71
2023-04-08T05:48:13.768Z,85.27
2023-04-08T05:50:41.000Z,84.66
2023-04-08T05:53:07.813Z,84.24
2023-04-08T05:55:35.037Z,83.67
2023-04-08T05:58:01.964Z,82.50
2023-04-08T06:00:29.126Z,82.14
2023-04-08T06:02:56.187Z,81.95
2023-04-08T06:05:23.528Z,81.47
2023-04-08T06:07:50.588Z,79.93
2023-04-08T06:10:18.435Z,79.75
2023-04-08T06:12:45.684Z,79.11
2023-04-08T06:15:12.770Z,79.96
2023-04-08T06:17:40.007Z,79.62
2023-04-08T06:20:07.386Z,78.94
2023-04-08T06:22:34.399Z,77.06
2023-04-08T06:25:01.749Z,76.95
2023-04-08T06:27:28.694Z,76.14
2023-04-08T06:29:55.897Z,75.94
2023-04-08T06:32:23.048Z,76.00
2023-04-08T06:34:50.000Z,74.71
2023-04-08T06:37:17.111Z,73.84
2023-04-08T06:39:44.410Z,73.75
2023-04-08T06:42:11.517Z,72.98
2023-04-08T06:44:52.586Z,72.34
2023-04-08T06:47:19.352Z,72.85
2023-04-08T06:49:46.872Z,70.48
2023-04-08T06:52:14.847Z,70.48
2023-04-08T06:54:42.413Z,68.76
2023-04-08T06:57:09.488Z,68.94
2023-04-08T06:59:36.513Z,67.48
2023-04-08T07:02:03.912Z,68.72
2023-04-08T07:04:31.665Z,67.70
2023-04-08T07:06:58.872Z,66.15
2023-04-08T07:09:25.958Z,66.25
2023-04-08T07:11:53.095Z,66.77
2023-04-08T07:14:20.587Z,66.04
2023-04-08T07:16:47.711Z,65.34
2023-04-08T07:19:14.757Z,65.18
2023-04-08T07:21:41.951Z,65.21
2023-04-08T07:24:08.852Z,64.84
2023-04-08T07:26:36.147Z,64.58
2023-04-08T07:29:03.016Z,65.18
2023-04-08T07:31:29.859Z,64.06
2023-04-08T07:33:57.424Z,64.90
2023-04-08T07:36:24.274Z,65.90
2023-04-08T07:38:51.834Z,66.53
2023-04-08T07:41:19.148Z,65.39
2023-04-08T07:43:46.204Z,64.88
2023-04-08T07:46:13.354Z,64.05
2023-04-08T07:48:40.332Z,65.06
2023-04-08T07:51:11.148Z,65.35
2023-04-08T07:53:40.337Z,64.20
2023-04-08T07:56:16.325Z,63.47
2023-04-08T07:58:43.650Z,64.73
2023-04-08T08:01:22.434Z,65.81
2023-04-08T08:03:53.991Z,64.14
2023-04-08T08:06:22.132Z,63.02
2023-04-08T08:08:49.120Z,63.97
2023-04-08T08:11:16.322Z,63.56
2023-04-08T08:13:43.554Z,63.95
2023-04-08T08:16:12.491Z,64.18
2023-04-08T08:18:41.047Z,63.94
2023-04-08T08:21:08.963Z,63.75
2023-04-08T08:23:36.561Z,63.03
2023-04-08T08:26:11.424Z,63.45
2023-04-08T08:28:39.834Z,62.08
2023-04-08T08:31:07.136Z,61.47
2023-04-08T08:33:34.507Z,61.92
2023-04-08T08:36:01.866Z,61.05
2023-04-08T08:38:28.954Z,61.05
2023-04-08T08:40:57.053Z,61.76
2023-04-08T08:43:25.505Z,61.87
2023-04-08T08:45:53.095Z,60.22
2023-04-08T08:48:20.623Z,60.03
2023-04-08T08:50:48.120Z,59.64
2023-04-08T08:53:15.825Z,61.11
2023-04-08T08:56:13.548Z,60.23
2023-04-08T08:58:31.205Z,59.42
2023-04-08T09:00:58.088Z,58.92
2023-04-08T09:03:28.246Z,58.52
2023-04-08T09:05:59.585Z,58.26
2023-04-08T09:08:33.444Z,58.29
2023-04-08T09:11:17.305Z,57.82
2023-04-08T09:13:46.117Z,57.38
2023-04-08T09:16:18.270Z,57.22
2023-04-08T09:18:47.504Z,57.31
2023-04-08T09:21:17.174Z,57.04
2023-04-08T09:23:49.199Z,55.40
2023-04-08T09:26:23.109Z,55.50
2023-04-08T09:29:24.435Z,57.27
2023-04-08T09:32:00.431Z,55.70
2023-04-08T09:34:29.263Z,57.06
2023-04-08T09:36:56.983Z,58.00
2023-04-08T09:39:24.581Z,56.95
2023-04-08T09:41:52.983Z,56.79
2023-04-08T09:44:21.968Z,57.59
2023-04-08T09:46:52.732Z,57.05
2023-04-08T09:49:26.188Z,56.69
2023-04-08T09:52:11.729Z,57.47
2023-04-08T09:54:50.210Z,57.25
2023-04-08T09:57:22.742Z,56.77
2023-04-08T09:59:57.869Z,56.41
2023-04-08T10:02:31.365Z,55.78
2023-04-08T10:05:05.611Z,55.94
2023-04-08T10:07:36.226Z,57.29
2023-04-08T10:10:03.999Z,58.53
2023-04-08T10:12:31.064Z,57.29
2023-04-08T10:15:26.482Z,57.44
2023-04-08T10:17:54.702Z,57.80
2023-04-08T10:20:37.817Z,57.33
2023-04-08T10:23:11.628Z,58.22
2023-04-08T10:25:39.358Z,58.46
2023-04-08T10:28:12.457Z,58.90
2023-04-08T10:30:48.492Z,58.75
2023-04-08T10:33:18.748Z,59.33
2023-04-08T10:36:02.325Z,61.11
2023-04-08T10:38:29.130Z,62.38
2023-04-08T10:40:56.192Z,62.70
2023-04-08T10:43:24.412Z,63.71
2023-04-08T10:46:37.827Z,61.73
2023-04-08T10:49:04.797Z,61.77
2023-04-08T10:51:33.911Z,61.82
2023-04-08T10:54:27.517Z,62.08
2023-04-08T10:56:55.063Z,62.60
2023-04-08T10:59:33.279Z,61.44
2023-04-08T11:02:01.533Z,61.12
2023-04-08T11:04:29.043Z,61.79
2023-04-08T11:06:56.460Z,60.50
2023-04-08T11:09:23.235Z,60.13
2023-04-08T11:11:52.408Z,60.42
2023-04-08T11:14:22.030Z,61.06
2023-04-08T11:16:49.063Z,58.55
2023-04-08T11:19:16.471Z,57.16
2023-04-08T11:21:43.667Z,57.75
2023-04-08T11:24:14.679Z,58.81
2023-04-08T11:26:42.762Z,59.53
2023-04-08T11:29:14.261Z,60.75
2023-04-08T11:31:41.946Z,60.00
2023-04-08T11:34:08.795Z,60.73
2023-04-08T11:36:36.930Z,58.88
2023-04-08T11:39:08.499Z,59.82
2023-04-08T11:41:40.785Z,58.51
2023-04-08T11:44:08.701Z,59.86
2023-04-08T11:46:36.306Z,57.47
2023-04-08T11:49:04.433Z,56.84
2023-04-08T11:51:31.677Z,56.79
2023-04-08T11:53:58.890Z,56.01
2023-04-08T11:56:26.648Z,55.82
2023-04-08T11:58:56.806Z,55.04
2023-04-08T12:01:40.790Z,55.03
2023-04-08T12:04:10.478Z,55.21
2023-04-08T12:06:37.872Z,55.13
2023-04-08T12:09:05.145Z,54.97
2023-04-08T12:11:32.133Z,54.35
2023-04-08T12:13:59.070Z,54.66
2023-04-08T12:16:26.304Z,55.13
2023-04-08T12:18:53.480Z,54.64
2023-04-08T12:21:20.533Z,54.78
2023-04-08T12:23:47.468Z,55.25
2023-04-08T12:26:14.850Z,56.48
2023-04-08T12:28:41.817Z,56.96
2023-04-08T12:31:08.897Z,57.39
2023-04-08T12:33:35.978Z,56.49
2023-04-08T12:36:03.409Z,56.75
2023-04-08T12:38:30.482Z,57.51
2023-04-08T12:40:57.363Z,57.95
2023-04-08T12:43:24.777Z,58.34
2023-04-08T12:45:52.005Z,59.22
2023-04-08T12:48:19.316Z,57.26
2023-04-08T12:50:46.839Z,58.13
2023-04-08T12:53:13.932Z,59.29
2023-04-08T12:55:42.678Z,59.83
2023-04-08T12:58:11.411Z,59.53
2023-04-08T13:00:39.165Z,60.99
2023-04-08T13:03:06.590Z,61.81
2023-04-08T13:05:43.295Z,63.79
2023-04-08T13:08:14.458Z,63.38
2023-04-08T13:10:42.541Z,62.93
2023-04-08T13:13:09.605Z,63.28
2023-04-08T13:15:37.139Z,64.28
2023-04-08T13:18:04.904Z,66.29
2023-04-08T13:20:32.175Z,65.27
2023-04-08T13:23:01.189Z,68.47
2023-04-08T13:25:28.574Z,71.87
2023-04-08T13:27:55.633Z,73.76
2023-04-08T13:30:22.647Z,77.33
2023-04-08T13:32:49.844Z,80.23
2023-04-08T13:35:17.052Z,82.07
2023-04-08T13:37:44.548Z,81.54
2023-04-08T13:40:12.618Z,81.71
2023-04-08T13:42:40.176Z,81.30
2023-04-08T13:45:08.481Z,80.09
2023-04-08T13:47:37.937Z,78.68
2023-04-08T13:50:08.155Z,78.35
2023-04-08T13:52:36.228Z,77.43
2023-04-08T13:55:03.672Z,78.12
2023-04-08T13:57:31.562Z,78.08
2023-04-08T13:59:58.957Z,75.56
2023-04-08T14:02:26.947Z,75.94
2023-04-08T14:04:54.787Z,75.89
2023-04-08T14:07:22.346Z,75.76
2023-04-08T14:09:49.689Z,76.48
2023-04-08T14:12:17.324Z,76.88
2023-04-08T14:14:45.981Z,76.35
2023-04-08T14:17:14.039Z,75.64
2023-04-08T14:19:42.453Z,76.50
2023-04-08T14:22:12.979Z,76.84
2023-04-08T14:24:40.900Z,77.52
2023-04-08T14:27:08.375Z,78.08
2023-04-08T14:29:36.078Z,76.48
2023-04-08T14:32:03.559Z,72.91
2023-04-08T14:34:30.962Z,71.89
2023-04-08T14:36:58.328Z,70.11
2023-04-08T14:39:25.995Z,70.31
2023-04-08T14:41:53.471Z,69.11
2023-04-08T14:44:21.030Z,67.80
2023-04-08T14:46:48.612Z,67.63
2023-04-08T14:49:16.245Z,66.49
2023-04-08T14:51:44.041Z,66.24
2023-04-08T14:54:14.308Z,65.64
2023-04-08T14:56:41.972Z,67.71
2023-04-08T14:59:09.291Z,68.42
2023-04-08T15:01:37.158Z,68.43
2023-04-08T15:04:05.376Z,68.34
2023-04-08T15:06:33.109Z,67.80
2023-04-08T15:09:18.107Z,68.17
2023-04-08T15:11:46.104Z,68.97
2023-04-08T15:14:13.965Z,70.85
2023-04-08T15:16:42.383Z,70.11
2023-04-08T15:19:10.230Z,69.36
2023-04-08T15:21:37.812Z,69.80
2023-04-08T15:24:06.337Z,70.95
2023-04-08T15:26:33.909Z,72.27
2023-04-08T15:29:01.686Z,69.71
2023-04-08T15:31:28.941Z,70.14
2023-04-08T15:33:57.080Z,69.69
2023-04-08T15:36:24.648Z,69.49
2023-04-08T15:38:52.846Z,70.93
2023-04-08T15:41:23.382Z,72.65
2023-04-08T15:43:50.616Z,74.06
2023-04-08T15:46:20.987Z,75.68
2023-04-08T15:48:49.131Z,76.88
2023-04-08T15:51:17.069Z,76.94
2023-04-08T15:54:39.968Z,76.45
2023-04-08T15:58:13.557Z,77.69
2023-04-08T16:00:41.242Z,77.40
2023-04-08T16:03:12.132Z,77.31
2023-04-08T16:05:41.610Z,78.13
2023-04-08T16:08:08.879Z,77.36
2023-04-08T16:10:36.361Z,77.13
2023-04-08T16:13:03.470Z,76.41
2023-04-08T16:15:30.545Z,76.79
2023-04-08T16:17:57.918Z,77.00
2023-04-08T16:20:26.380Z,78.69
2023-04-08T16:22:53.861Z,78.45
2023-04-08T16:25:21.834Z,79.11
2023-04-08T16:27:52.260Z,80.04
2023-04-08T16:30:20.531Z,80.34
2023-04-08T16:32:50.960Z,81.28
2023-04-08T16:35:19.466Z,81.55
2023-04-08T16:37:47.832Z,82.74
2023-04-08T16:40:16.683Z,83.65
2023-04-08T16:42:44.659Z,85.36
2023-04-08T16:45:15.463Z,86.50
2023-04-08T16:47:43.642Z,86.87
2023-04-08T16:50:11.916Z,88.75
2023-04-08T16:52:40.940Z,87.53
2023-04-08T16:55:09.897Z,87.47
2023-04-08T16:57:37.917Z,87.75
2023-04-08T17:00:09.106Z,88.39
2023-04-08T17:02:37.194Z,88.09
2023-04-08T17:05:05.514Z,89.08
2023-04-08T17:07:33.385Z,89.09
2023-04-08T17:10:01.641Z,88.46
2023-04-08T17:12:28.745Z,89.06
2023-04-08T17:14:56.870Z,89.76
2023-04-08T17:17:25.211Z,90.26
2023-04-08T17:19:55.948Z,90.25
2023-04-08T17:22:23.880Z,91.18
2023-04-08T17:24:51.707Z,91.26
2023-04-08T17:27:20.126Z,90.61
2023-04-08T17:29:47.972Z,91.07
2023-04-08T17:32:16.500Z,91.84
2023-04-08T17:34:44.511Z,91.65
2023-04-08T17:37:12.584Z,92.37
2023-04-08T17:39:41.455Z,92.36
2023-04-08T17:42:09.526Z,92.19
2023-04-08T17:44:38.477Z,92.67
2023-04-08T17:47:06.860Z,92.52
2023-04-08T17:49:35.546Z,92.08
2023-04-08T17:52:03.875Z,92.41
2023-04-08T17:54:35.278Z,91.82
2023-04-08T17:57:03.802Z,91.81
2023-04-08T17:59:31.247Z,92.10
2023-04-08T18:01:59.241Z,91.66
2023-04-08T18:04:27.241Z,92.16
2023-04-08T18:06:55.156Z,92.49
2023-04-08T18:09:23.082Z,93.15
2023-04-08T18:11:50.456Z,93.59
2023-04-08T18:14:18.219Z,93.46
2023-04-08T18:16:46.330Z,93.13
2023-04-08T18:19:14.261Z,92.32
2023-04-08T18:21:42.406Z,92.29
2023-04-08T18:24:10.304Z,91.61
2023-04-08T18:26:37.648Z,91.93
2023-04-08T18:29:05.323Z,91.69
2023-04-08T18:31:33.625Z,91.99
2023-04-08T18:34:01.540Z,91.75
2023-04-08T18:36:29.364Z,91.71
2023-04-08T18:38:59.696Z,92.25
2023-04-08T18:41:28.832Z,92.70
2023-04-08T18:43:56.862Z,93.11
2023-04-08T18:46:25.401Z,93.43
2023-04-08T18:48:55.734Z,93.14
2023-04-08T18:51:24.352Z,93.50
2023-04-08T18:53:53.684Z,93.77
2023-04-08T18:56:22.162Z,93.63
2023-04-08T18:58:50.981Z,94.13
2023-04-08T19:01:19.196Z,94.31
2023-04-08T19:03:47.483Z,94.74
2023-04-08T19:06:18.162Z,94.22
2023-04-08T19:08:48.132Z,93.83
2023-04-08T19:11:16.429Z,94.14
2023-04-08T19:13:44.840Z,94.75
2023-04-08T19:16:14.365Z,95.18
2023-04-08T19:18:42.252Z,96.20
2023-04-08T19:21:10.355Z,96.32
2023-04-08T19:23:38.249Z,96.60
2023-04-08T19:26:07.545Z,96.31
2023-04-08T19:28:36.463Z,96.93
2023-04-08T19:31:06.691Z,96.91
2023-04-08T19:33:35.855Z,97.18
2023-04-08T19:36:03.873Z,97.81
2023-04-08T19:38:32.190Z,96.63
2023-04-08T19:41:00.102Z,97.55
2023-04-08T19:43:28.346Z,97.75
2023-04-08T19:45:56.523Z,97.86
2023-04-08T19:48:25.526Z,97.40
2023-04-08T19:50:53.328Z,97.84
2023-04-08T19:53:21.760Z,99.22
2023-04-08T19:55:49.737Z,99.44
2023-04-08T19:58:17.868Z,99.04
2023-04-08T20:00:45.838Z,100.00
2023-04-08T20:03:14.717Z,100.00
2023-04-08T20:05:46.978Z,100.00
2023-04-08T20:08:14.975Z,99.71
2023-04-08T20:10:43.454Z,100.00
2023-04-08T20:13:11.464Z,100.00
2023-04-08T20:15:39.791Z,100.00
2023-04-08T20:18:07.832Z,100.00
2023-04-08T20:20:35.863Z,100.00
2023-04-08T20:23:03.717Z,100.00
2023-04-08T20:25:32.020Z,100.00
2023-04-08T20:27:59.845Z,100.00
2023-04-08T20:30:28.774Z,100.00
2023-04-08T20:32:56.883Z,100.00
2023-04-08T20:35:30.717Z,100.00
2023-04-08T20:37:58.603Z,100.00
2023-04-08T20:40:25.820Z,100.00
2023-04-08T20:42:53.632Z,100.00
2023-04-08T20:45:21.689Z,100.00
2023-04-08T20:47:50.391Z,100.00
2023-04-08T20:50:18.683Z,100.00
2023-04-08T20:52:48.486Z,100.00
2023-04-08T20:55:16.491Z,100.00
2023-04-08T20:57:45.306Z,100.00
2023-04-08T21:00:14.570Z,100.00
2023-04-08T21:02:53.308Z,100.00
2023-04-08T21:05:30.748Z,100.00
2023-04-08T21:08:02.868Z,100.00
2023-04-08T21:10:35.329Z,100.00
2023-04-08T21:15:48.649Z,100.00
2023-04-08T21:18:19.171Z,100.00
2023-04-08T21:20:51.306Z,100.00
2023-04-08T21:23:23.243Z,100.00
2023-04-08T21:25:55.692Z,100.00
2023-04-08T21:28:27.884Z,100.00
2023-04-08T21:31:05.222Z,100.00
2023-04-08T21:33:37.629Z,100.00
2023-04-08T21:38:57.179Z,100.00
2023-04-08T21:41:35.251Z,100.00
2023-04-08T21:44:08.943Z,100.00
2023-04-08T21:46:37.992Z,100.00
2023-04-08T21:49:07.755Z,100.00
2023-04-08T21:51:40.556Z,100.00
2023-04-08T21:54:16.323Z,100.00
2023-04-08T21:56:43.885Z,100.00
2023-04-08T21:59:14.048Z,100.00
2023-04-08T22:01:41.562Z,100.00
2023-04-08T22:04:19.735Z,100.00
2023-04-08T22:06:49.587Z,100.00
2023-04-08T22:09:17.093Z,100.00
2023-04-08T22:11:44.207Z,100.00
2023-04-08T22:14:11.021Z,100.00
2023-04-08T22:16:38.399Z,100.00
2023-04-08T22:19:05.647Z,100.00
2023-04-08T22:21:33.073Z,100.00
2023-04-08T22:24:00.018Z,100.00
2023-04-08T22:26:27.710Z,100.00
2023-04-08T22:28:54.851Z,100.00
2023-04-08T22:31:22.262Z,100.00
2023-04-08T22:33:49.321Z,100.00
2023-04-08T22:36:16.995Z,100.00
2023-04-08T22:38:44.108Z,100.00
2023-04-08T22:41:18.143Z,100.00
2023-04-08T22:43:45.685Z,100.00
2023-04-08T22:46:14.719Z,100.00
2023-04-08T22:48:41.844Z,100.00
2023-04-08T22:51:09.384Z,100.00
2023-04-08T22:53:36.993Z,100.00
2023-04-08T22:56:04.587Z,100.00
2023-04-08T22:58:31.747Z,100.00
2023-04-08T23:00:58.800Z,100.00
2023-04-08T23:03:25.782Z,100.00
2023-04-08T23:05:52.752Z,100.00
2023-04-08T23:08:19.912Z,100.00
2023-04-08T23:10:46.890Z,100.00
2023-04-08T23:13:14.523Z,100.00
2023-04-08T23:15:41.715Z,100.00
2023-04-08T23:18:08.676Z,100.00
2023-04-08T23:20:35.969Z,100.00
2023-04-08T23:23:03.722Z,100.00
2023-04-08T23:25:30.829Z,100.00
2023-04-08T23:27:57.752Z,100.00
2023-04-08T23:30:24.767Z,100.00
2023-04-08T23:32:51.886Z,100.00
2023-04-08T23:35:20.291Z,100.00
2023-04-08T23:37:47.378Z,100.00
2023-04-08T23:40:14.320Z,100.00
2023-04-08T23:42:41.255Z,100.00
2023-04-08T23:45:08.634Z,100.00
2023-04-08T23:47:35.878Z,100.00
2023-04-08T23:50:02.988Z,100.00
2023-04-08T23:52:29.952Z,100.00
2023-04-08T23:54:57.039Z,100.00
2023-04-08T23:57:24.137Z,100.00
2023-04-08T23:59:51.282Z,100.00
